Terminal Aerodrome Forecast
Issued by NWS

Home | Current Version | Previous Version | Text Only | Print | Product List | Glossary On
Versions: 1 2 3 4 5 6 7 8 9 10 11 12 13 14 15 16
894
FTUS45 KRIW 091721
TAFRKS
TAF
KRKS 091721Z 0918/1018 25014G24KT P6SM VCSH SCT025 OVC040
     FM101500 24020G30KT 5SM -SN BKN025=

USA.gov is the U.S. government's official web portal to all federal, state and local government web resources and services.